createdAt,value
2018-07-26T00:01:09.668Z,9.17
2018-07-26T00:03:38.988Z,8.57
2018-07-26T00:06:07.868Z,8.23
2018-07-26T00:08:36.242Z,8.70
2018-07-26T00:11:04.909Z,7.77
2018-07-26T00:13:33.326Z,9.00
2018-07-26T00:16:02.095Z,8.20
2018-07-26T00:18:30.956Z,8.90
2018-07-26T00:20:59.685Z,8.37
2018-07-26T00:23:28.338Z,8.70
2018-07-26T00:25:57.030Z,9.80
2018-07-26T00:28:25.730Z,9.43
2018-07-26T00:30:54.812Z,9.30
2018-07-26T00:33:23.537Z,9.50
2018-07-26T00:35:52.405Z,8.90
2018-07-26T00:38:20.784Z,8.77
2018-07-26T00:40:49.492Z,8.60
2018-07-26T00:43:18.233Z,8.60
2018-07-26T00:45:46.844Z,8.77
2018-07-26T00:48:15.380Z,8.40
2018-07-26T00:50:44.446Z,8.60
2018-07-26T00:53:12.978Z,8.67
2018-07-26T00:55:41.590Z,8.67
2018-07-26T00:58:09.972Z,8.67
2018-07-26T01:00:38.438Z,8.30
2018-07-26T01:03:07.368Z,8.10
2018-07-26T01:05:36.051Z,8.00
2018-07-26T01:08:04.878Z,8.07
2018-07-26T01:10:33.525Z,8.30
2018-07-26T01:13:02.244Z,7.93
2018-07-26T01:15:30.865Z,8.10
2018-07-26T01:17:59.464Z,7.77
2018-07-26T01:20:27.956Z,7.83
2018-07-26T01:22:56.628Z,8.07
2018-07-26T01:25:25.840Z,8.67
2018-07-26T01:27:54.398Z,7.93
2018-07-26T01:30:22.892Z,7.77
2018-07-26T01:32:51.572Z,8.37
2018-07-26T01:35:20.409Z,7.73
2018-07-26T01:37:49.281Z,8.37
2018-07-26T01:40:18.096Z,7.53
2018-07-26T01:42:51.971Z,8.07
2018-07-26T01:45:20.842Z,7.83
2018-07-26T01:47:50.476Z,8.47
2018-07-26T01:50:19.292Z,8.63
2018-07-26T01:52:47.954Z,8.17
2018-07-26T01:55:16.536Z,8.70
2018-07-26T01:57:45.508Z,8.50
2018-07-26T02:00:14.203Z,8.43
2018-07-26T02:02:42.606Z,8.87
2018-07-26T02:05:11.288Z,8.57
2018-07-26T02:07:40.229Z,8.50
2018-07-26T02:10:08.656Z,8.30
2018-07-26T02:12:37.726Z,8.80
2018-07-26T02:15:06.515Z,8.60
2018-07-26T02:17:35.208Z,8.70
2018-07-26T02:20:03.797Z,9.27
2018-07-26T02:22:32.483Z,9.30
2018-07-26T02:25:01.185Z,9.30
2018-07-26T02:27:30.664Z,9.30
2018-07-26T02:29:59.399Z,9.40
2018-07-26T02:32:28.397Z,9.60
2018-07-26T02:34:57.036Z,10.67
2018-07-26T02:37:25.431Z,9.60
2018-07-26T02:39:54.203Z,9.90
2018-07-26T02:42:22.889Z,9.37
2018-07-26T02:44:51.808Z,9.33
2018-07-26T02:47:20.214Z,9.67
2018-07-26T02:49:48.956Z,10.20
2018-07-26T02:52:17.537Z,9.47
2018-07-26T02:54:46.014Z,9.27
2018-07-26T02:57:14.756Z,9.40
2018-07-26T02:59:43.601Z,10.10
2018-07-26T03:02:11.971Z,9.83
2018-07-26T03:04:41.303Z,10.17
2018-07-26T03:07:10.041Z,10.43
2018-07-26T03:09:39.364Z,10.90
2018-07-26T03:12:07.972Z,10.00
2018-07-26T03:14:43.205Z,9.83
2018-07-26T03:17:12.356Z,10.53
2018-07-26T03:19:41.153Z,10.30
2018-07-26T03:22:09.929Z,10.03
2018-07-26T03:24:38.652Z,9.80
2018-07-26T03:27:07.626Z,9.57
2018-07-26T03:29:36.123Z,10.23
2018-07-26T03:32:04.821Z,10.20
2018-07-26T03:34:33.603Z,9.90
2018-07-26T03:37:02.220Z,10.10
2018-07-26T03:39:31.114Z,9.83
2018-07-26T03:41:59.974Z,9.67
2018-07-26T03:44:28.554Z,9.73
2018-07-26T03:46:57.223Z,9.70
2018-07-26T03:49:25.925Z,10.50
2018-07-26T03:51:55.461Z,10.53
2018-07-26T03:54:23.920Z,10.67
2018-07-26T03:56:52.602Z,10.07
2018-07-26T03:59:21.103Z,9.77
2018-07-26T04:01:50.031Z,10.00
2018-07-26T04:04:18.664Z,10.37
2018-07-26T04:06:47.145Z,10.10
2018-07-26T04:09:16.348Z,10.50
2018-07-26T04:11:45.978Z,10.20
2018-07-26T04:14:14.332Z,10.53
2018-07-26T04:16:42.716Z,9.77
2018-07-26T04:19:11.811Z,9.83
2018-07-26T04:21:40.737Z,9.83
2018-07-26T04:24:09.492Z,9.43
2018-07-26T04:26:38.032Z,9.67
2018-07-26T04:29:06.703Z,8.97
2018-07-26T04:31:35.525Z,10.00
2018-07-26T04:34:04.033Z,10.60
2018-07-26T04:36:32.616Z,9.90
2018-07-26T04:39:01.015Z,10.70
2018-07-26T04:41:29.735Z,10.50
2018-07-26T04:43:58.766Z,10.63
2018-07-26T04:46:27.993Z,11.33
2018-07-26T04:48:56.737Z,11.10
2018-07-26T04:51:25.759Z,10.37
2018-07-26T04:53:54.363Z,9.77
2018-07-26T04:56:23.374Z,10.57
2018-07-26T04:58:52.740Z,10.30
2018-07-26T05:01:21.449Z,11.43
2018-07-26T05:03:50.365Z,11.07
2018-07-26T05:06:19.130Z,10.63
2018-07-26T05:08:47.700Z,10.30
2018-07-26T05:11:16.229Z,11.07
2018-07-26T05:13:45.401Z,10.77
2018-07-26T05:16:14.096Z,10.83
2018-07-26T05:18:43.054Z,11.43
2018-07-26T05:21:11.592Z,10.60
2018-07-26T05:23:40.131Z,10.67
2018-07-26T05:26:08.513Z,10.13
2018-07-26T05:28:36.981Z,10.60
2018-07-26T05:31:05.679Z,10.60
2018-07-26T05:33:34.571Z,10.53
2018-07-26T05:36:03.289Z,10.47
2018-07-26T05:38:31.958Z,10.07
2018-07-26T05:41:00.421Z,10.73
2018-07-26T05:43:29.112Z,10.50
2018-07-26T05:45:57.725Z,9.40
2018-07-26T05:48:26.376Z,10.60
2018-07-26T05:50:54.965Z,10.03
2018-07-26T05:53:23.831Z,9.03
2018-07-26T05:55:52.482Z,8.83
2018-07-26T05:58:21.148Z,9.10
2018-07-26T06:00:49.789Z,8.67
2018-07-26T06:03:18.641Z,8.13
2018-07-26T06:05:47.326Z,8.67
2018-07-26T06:08:16.279Z,8.73
2018-07-26T06:10:45.273Z,8.50
2018-07-26T06:13:14.197Z,8.47
2018-07-26T06:15:43.611Z,8.13
2018-07-26T06:18:12.442Z,10.67
2018-07-26T06:20:41.095Z,9.13
2018-07-26T06:23:09.695Z,8.60
2018-07-26T06:25:38.504Z,8.70
2018-07-26T06:28:07.135Z,8.57
2018-07-26T06:30:35.908Z,8.30
2018-07-26T06:33:04.685Z,9.23
2018-07-26T06:35:33.505Z,8.50
2018-07-26T06:38:02.057Z,8.10
2018-07-26T06:40:30.639Z,8.63
2018-07-26T06:42:59.327Z,8.27
2018-07-26T06:45:27.808Z,7.90
2018-07-26T06:47:56.408Z,8.50
2018-07-26T06:50:25.375Z,8.30
2018-07-26T06:52:54.172Z,7.67
2018-07-26T06:55:23.065Z,7.63
2018-07-26T06:57:52.090Z,7.67
2018-07-26T07:00:21.052Z,7.60
2018-07-26T07:02:49.804Z,7.57
2018-07-26T07:05:18.737Z,8.27
2018-07-26T07:07:47.456Z,7.33
2018-07-26T07:10:16.151Z,7.60
2018-07-26T07:12:45.325Z,7.43
2018-07-26T07:15:14.100Z,7.53
2018-07-26T07:17:42.848Z,7.57
2018-07-26T07:20:11.600Z,7.03
2018-07-26T07:22:40.260Z,7.23
2018-07-26T07:25:09.811Z,7.00
2018-07-26T07:27:38.488Z,7.10
2018-07-26T07:30:08.701Z,7.33
2018-07-26T07:32:37.457Z,7.00
2018-07-26T07:35:06.048Z,7.60
2018-07-26T07:37:34.446Z,7.10
2018-07-26T07:40:03.448Z,6.90
2018-07-26T07:42:32.090Z,7.40
2018-07-26T07:45:00.793Z,6.70
2018-07-26T07:47:29.185Z,6.50
2018-07-26T07:49:57.552Z,6.60
2018-07-26T07:52:26.236Z,6.90
2018-07-26T07:54:54.625Z,6.60
2018-07-26T07:57:23.376Z,7.03
2018-07-26T07:59:52.347Z,6.33
2018-07-26T08:02:21.012Z,7.20
2018-07-26T08:04:49.502Z,7.07
2018-07-26T08:07:18.522Z,7.07
2018-07-26T08:09:47.355Z,6.73
2018-07-26T08:12:16.429Z,6.93
2018-07-26T08:14:45.675Z,7.33
2018-07-26T08:17:14.610Z,6.50
2018-07-26T08:19:43.029Z,6.90
2018-07-26T08:22:11.508Z,7.23
2018-07-26T08:24:40.729Z,7.13
2018-07-26T08:27:09.509Z,7.03
2018-07-26T08:29:38.188Z,6.97
2018-07-26T08:32:07.402Z,6.77
2018-07-26T08:34:36.169Z,6.60
2018-07-26T08:37:04.926Z,6.83
2018-07-26T08:39:33.751Z,6.87
2018-07-26T08:42:02.123Z,6.97
2018-07-26T08:44:30.828Z,6.90
2018-07-26T08:46:59.619Z,6.43
2018-07-26T08:49:28.695Z,7.10
2018-07-26T08:51:57.513Z,6.57
2018-07-26T08:54:26.278Z,6.23
2018-07-26T08:56:55.282Z,6.90
2018-07-26T08:59:23.880Z,6.10
2018-07-26T09:01:52.847Z,6.50
2018-07-26T09:04:21.850Z,6.00
2018-07-26T09:06:50.822Z,6.40
2018-07-26T09:09:19.315Z,6.83
2018-07-26T09:11:48.192Z,6.80
2018-07-26T09:14:17.413Z,6.27
2018-07-26T09:16:46.110Z,6.60
2018-07-26T09:19:14.889Z,7.23
2018-07-26T09:21:43.392Z,6.37
2018-07-26T09:24:12.252Z,6.43
2018-07-26T09:26:40.636Z,7.53
2018-07-26T09:29:09.367Z,7.73
2018-07-26T09:31:38.183Z,7.87
2018-07-26T09:34:07.218Z,7.20
2018-07-26T09:36:35.786Z,7.27
2018-07-26T09:39:06.596Z,7.67
2018-07-26T09:41:36.392Z,7.33
2018-07-26T09:44:05.397Z,7.43
2018-07-26T09:46:34.721Z,7.57
2018-07-26T09:49:03.434Z,6.97
2018-07-26T09:51:32.483Z,7.20
2018-07-26T09:54:00.906Z,6.53
2018-07-26T09:56:29.488Z,7.43
2018-07-26T09:58:58.244Z,6.77
2018-07-26T10:01:30.252Z,6.63
2018-07-26T10:03:59.648Z,6.30
2018-07-26T10:06:28.408Z,6.57
2018-07-26T10:08:57.482Z,6.53
2018-07-26T10:11:26.959Z,6.90
2018-07-26T10:13:56.158Z,6.50
2018-07-26T10:16:25.533Z,6.40
2018-07-26T10:18:54.732Z,5.87
2018-07-26T10:21:23.218Z,6.37
2018-07-26T10:23:51.824Z,6.30
2018-07-26T10:26:20.575Z,6.47
2018-07-26T10:28:49.654Z,5.87
2018-07-26T10:31:18.295Z,6.20
2018-07-26T10:33:47.324Z,6.03
2018-07-26T10:36:16.331Z,5.80
2018-07-26T10:38:45.184Z,5.80
2018-07-26T10:41:14.460Z,5.50
2018-07-26T10:43:43.700Z,6.17
2018-07-26T10:46:12.733Z,5.83
2018-07-26T10:48:42.484Z,6.03
2018-07-26T10:51:11.254Z,5.50
2018-07-26T10:53:40.586Z,5.70
2018-07-26T10:56:09.284Z,5.70
2018-07-26T10:58:38.272Z,5.70
2018-07-26T11:01:07.537Z,4.90
2018-07-26T11:03:36.364Z,5.70
2018-07-26T11:06:05.588Z,5.50
2018-07-26T11:08:34.886Z,5.20
2018-07-26T11:11:03.927Z,4.80
2018-07-26T11:13:32.919Z,5.17
2018-07-26T11:16:01.844Z,5.60
2018-07-26T11:18:30.861Z,5.78
2018-07-26T11:20:59.836Z,5.25
2018-07-26T11:23:29.219Z,6.20
2018-07-26T11:25:58.759Z,5.20
2018-07-26T11:28:27.500Z,5.53
2018-07-26T11:30:56.317Z,5.30
2018-07-26T11:33:25.065Z,5.23
2018-07-26T11:35:54.125Z,6.00
2018-07-26T11:38:23.112Z,5.57
2018-07-26T11:40:52.691Z,5.73
2018-07-26T11:43:21.614Z,5.70
2018-07-26T11:45:50.166Z,5.57
2018-07-26T11:48:18.847Z,5.97
2018-07-26T11:50:48.106Z,5.40
2018-07-26T11:53:16.497Z,5.83
2018-07-26T11:55:44.910Z,5.90
2018-07-26T11:58:13.314Z,5.50
2018-07-26T12:00:42.274Z,5.60
2018-07-26T12:03:10.866Z,5.83
2018-07-26T12:05:39.651Z,5.67
2018-07-26T12:08:08.647Z,5.93
2018-07-26T12:10:37.024Z,5.30
2018-07-26T12:13:05.503Z,5.13
2018-07-26T12:15:34.410Z,5.57
2018-07-26T12:18:03.700Z,5.60
2018-07-26T12:20:32.208Z,6.00
2018-07-26T12:23:01.083Z,5.47
2018-07-26T12:25:30.040Z,6.10
2018-07-26T12:27:58.418Z,5.63
2018-07-26T12:30:27.102Z,6.00
2018-07-26T12:32:55.586Z,5.93
2018-07-26T12:35:24.581Z,5.80
2018-07-26T12:37:53.414Z,5.90
2018-07-26T12:40:21.859Z,5.57
2018-07-26T12:42:50.675Z,6.23
2018-07-26T12:45:19.421Z,5.90
2018-07-26T12:47:47.934Z,5.60
2018-07-26T12:50:16.908Z,6.27
2018-07-26T12:52:45.577Z,5.80
2018-07-26T12:55:14.094Z,6.10
2018-07-26T12:57:42.766Z,5.93
2018-07-26T13:00:11.352Z,6.03
2018-07-26T13:02:39.810Z,6.47
2018-07-26T13:05:09.237Z,6.40
2018-07-26T13:07:37.756Z,5.97
2018-07-26T13:10:06.554Z,5.40
2018-07-26T13:12:36.029Z,6.03
2018-07-26T13:15:05.044Z,5.53
2018-07-26T13:17:33.996Z,5.47
2018-07-26T13:20:02.684Z,5.33
2018-07-26T13:22:31.229Z,5.10
2018-07-26T13:25:00.760Z,5.47
2018-07-26T13:27:29.625Z,5.73
2018-07-26T13:29:58.450Z,5.37
2018-07-26T13:32:27.358Z,5.43
2018-07-26T13:34:56.481Z,5.03
2018-07-26T13:37:25.129Z,5.20
2018-07-26T13:39:53.841Z,5.03
2018-07-26T13:42:22.709Z,5.17
2018-07-26T13:44:51.115Z,5.47
2018-07-26T13:47:19.940Z,4.97
2018-07-26T13:49:48.754Z,5.03
2018-07-26T13:52:18.076Z,5.23
2018-07-26T13:54:46.557Z,5.03
2018-07-26T13:57:15.461Z,4.60
2018-07-26T13:59:44.470Z,5.10
2018-07-26T14:02:13.263Z,5.00
2018-07-26T14:04:42.251Z,4.87
2018-07-26T14:07:11.138Z,5.10
2018-07-26T14:09:39.925Z,4.70
2018-07-26T14:12:08.851Z,5.33
2018-07-26T14:14:37.610Z,4.80
2018-07-26T14:17:06.180Z,5.03
2018-07-26T14:19:34.578Z,5.13
2018-07-26T14:22:03.212Z,4.67
2018-07-26T14:24:31.998Z,4.47
2018-07-26T14:27:00.746Z,4.93
2018-07-26T14:29:29.323Z,5.03
2018-07-26T14:31:58.612Z,4.50
2018-07-26T14:34:27.616Z,4.83
2018-07-26T14:36:56.272Z,5.27
2018-07-26T14:39:25.084Z,5.00
2018-07-26T14:41:53.700Z,4.90
2018-07-26T14:44:22.337Z,4.87
2018-07-26T14:46:50.736Z,5.37
2018-07-26T14:49:19.193Z,5.67
2018-07-26T14:51:48.393Z,5.87
2018-07-26T14:54:16.883Z,5.63
2018-07-26T14:56:45.483Z,5.83
2018-07-26T14:59:13.864Z,5.73
2018-07-26T15:01:42.229Z,5.50
2018-07-26T15:04:10.962Z,4.80
2018-07-26T15:06:39.928Z,5.80
2018-07-26T15:09:09.051Z,5.67
2018-07-26T15:11:37.853Z,5.30
2018-07-26T15:14:06.455Z,5.00
2018-07-26T15:16:34.985Z,4.97
2018-07-26T15:19:03.336Z,5.13
2018-07-26T15:21:31.717Z,5.27
2018-07-26T15:24:00.093Z,4.60
2018-07-26T15:26:28.517Z,5.20
2018-07-26T15:28:56.956Z,4.77
2018-07-26T15:31:25.833Z,5.23
2018-07-26T15:33:54.559Z,5.20
2018-07-26T15:36:23.236Z,5.13
2018-07-26T15:38:51.605Z,4.60
2018-07-26T15:41:20.328Z,5.30
2018-07-26T15:43:48.974Z,5.10
2018-07-26T15:46:17.751Z,5.67
2018-07-26T15:48:46.473Z,4.50
2018-07-26T15:51:15.221Z,4.80
2018-07-26T15:53:44.182Z,5.00
2018-07-26T15:56:12.761Z,4.80
2018-07-26T15:58:41.973Z,4.80
2018-07-26T16:01:11.008Z,4.83
2018-07-26T16:03:39.665Z,4.83
2018-07-26T16:06:08.407Z,5.03
2018-07-26T16:08:37.784Z,4.77
2018-07-26T16:11:06.763Z,5.43
2018-07-26T16:13:35.647Z,4.60
2018-07-26T16:16:04.576Z,4.97
2018-07-26T16:18:33.818Z,4.63
2018-07-26T16:21:02.661Z,5.17
2018-07-26T16:23:31.054Z,5.20
2018-07-26T16:25:59.440Z,5.53
2018-07-26T16:28:27.980Z,5.47
2018-07-26T16:30:56.788Z,5.23
2018-07-26T16:33:25.222Z,4.53
2018-07-26T16:35:54.299Z,5.00
2018-07-26T16:38:22.926Z,5.47
2018-07-26T16:40:51.796Z,6.77
2018-07-26T16:43:20.329Z,5.50
2018-07-26T16:45:49.313Z,5.13
2018-07-26T16:48:17.982Z,5.10
2018-07-26T16:50:46.731Z,5.57
2018-07-26T16:53:16.197Z,5.30
2018-07-26T16:55:44.617Z,5.17
2018-07-26T16:58:13.346Z,5.57
2018-07-26T17:00:42.256Z,5.20
2018-07-26T17:03:10.644Z,4.97
2018-07-26T17:05:39.338Z,5.30
2018-07-26T17:08:08.009Z,5.20
2018-07-26T17:10:36.729Z,5.20
2018-07-26T17:13:05.638Z,5.33
2018-07-26T17:15:34.084Z,5.50
2018-07-26T17:18:03.377Z,5.80
2018-07-26T17:20:33.408Z,5.33
2018-07-26T17:23:02.321Z,5.37
2018-07-26T17:25:31.066Z,5.07
2018-07-26T17:27:59.664Z,4.90
2018-07-26T17:30:28.045Z,5.43
2018-07-26T17:32:57.060Z,5.40
2018-07-26T17:35:25.732Z,4.77
2018-07-26T17:37:54.941Z,5.80
2018-07-26T17:40:23.406Z,5.37
2018-07-26T17:42:51.898Z,5.40
2018-07-26T17:45:21.143Z,5.50
2018-07-26T17:47:50.064Z,5.20
2018-07-26T17:50:18.827Z,4.97
2018-07-26T17:52:48.370Z,5.43
2018-07-26T17:55:16.747Z,6.13
2018-07-26T17:57:45.472Z,5.63
2018-07-26T18:00:14.388Z,4.70
2018-07-26T18:02:43.169Z,5.53
2018-07-26T18:05:11.907Z,5.40
2018-07-26T18:07:40.490Z,5.27
2018-07-26T18:10:09.069Z,5.87
2018-07-26T18:12:37.638Z,5.37
2018-07-26T18:15:06.721Z,5.43
2018-07-26T18:17:36.164Z,5.47
2018-07-26T18:20:05.453Z,5.23
2018-07-26T18:22:34.156Z,5.20
2018-07-26T18:25:03.452Z,5.43
2018-07-26T18:27:32.182Z,5.73
2018-07-26T18:30:01.261Z,5.97
2018-07-26T18:32:30.340Z,5.40
2018-07-26T18:34:58.976Z,5.83
2018-07-26T18:37:27.895Z,5.53
2018-07-26T18:39:56.510Z,5.67
2018-07-26T18:42:25.166Z,5.60
2018-07-26T18:44:53.561Z,6.17
2018-07-26T18:47:22.336Z,6.17
2018-07-26T18:49:51.251Z,5.90
2018-07-26T18:52:19.602Z,5.47
2018-07-26T18:54:48.172Z,5.47
2018-07-26T18:57:17.017Z,6.20
2018-07-26T18:59:45.769Z,6.07
2018-07-26T19:02:14.746Z,6.27
2018-07-26T19:04:43.655Z,5.80
2018-07-26T19:07:12.653Z,6.00
2018-07-26T19:09:41.350Z,6.20
2018-07-26T19:12:10.601Z,6.13
2018-07-26T19:14:39.309Z,6.07
2018-07-26T19:17:07.734Z,5.40
2018-07-26T19:19:36.661Z,4.93
2018-07-26T19:22:05.424Z,6.20
2018-07-26T19:24:34.398Z,5.70
2018-07-26T19:27:03.024Z,6.00
2018-07-26T19:29:31.462Z,6.30
2018-07-26T19:32:00.493Z,5.67
2018-07-26T19:34:29.225Z,5.80
2018-07-26T19:36:58.120Z,5.87
2018-07-26T19:39:26.756Z,6.13
2018-07-26T19:41:55.689Z,6.07
2018-07-26T19:44:24.513Z,6.13
2018-07-26T19:46:53.176Z,5.87
2018-07-26T19:49:21.983Z,6.10
2018-07-26T19:51:50.576Z,6.70
2018-07-26T19:54:19.543Z,6.00
2018-07-26T19:56:47.918Z,6.20
2018-07-26T19:59:16.324Z,6.40
2018-07-26T20:01:45.297Z,6.50
2018-07-26T20:04:13.823Z,6.17
2018-07-26T20:06:42.368Z,7.17
2018-07-26T20:09:11.113Z,6.63
2018-07-26T20:11:40.086Z,6.33
2018-07-26T20:14:09.142Z,5.80
2018-07-26T20:16:38.654Z,6.00
2018-07-26T20:19:07.130Z,6.23
2018-07-26T20:21:36.045Z,6.17
2018-07-26T20:24:04.738Z,6.37
2018-07-26T20:26:33.491Z,5.63
2018-07-26T20:29:02.690Z,6.50
2018-07-26T20:31:31.478Z,6.40
2018-07-26T20:34:00.706Z,6.60
2018-07-26T20:36:29.363Z,6.63
2018-07-26T20:38:57.736Z,6.33
2018-07-26T20:41:26.234Z,6.07
2018-07-26T20:43:55.082Z,6.30
2018-07-26T20:46:23.866Z,6.20
2018-07-26T20:48:52.502Z,6.23
2018-07-26T20:51:21.278Z,6.00
2018-07-26T20:53:49.868Z,6.43
2018-07-26T20:56:18.533Z,6.40
2018-07-26T20:58:46.969Z,6.23
2018-07-26T21:01:15.628Z,6.67
2018-07-26T21:03:44.137Z,6.43
2018-07-26T21:06:12.798Z,6.40
2018-07-26T21:08:41.389Z,7.13
2018-07-26T21:11:10.087Z,6.47
2018-07-26T21:13:38.746Z,6.50
2018-07-26T21:16:07.230Z,6.17
2018-07-26T21:18:35.911Z,6.37
2018-07-26T21:21:04.583Z,6.27
2018-07-26T21:23:33.208Z,6.57
2018-07-26T21:26:02.209Z,6.33
2018-07-26T21:28:30.868Z,6.63
2018-07-26T21:30:59.256Z,6.70
2018-07-26T21:33:28.004Z,6.33
2018-07-26T21:35:56.653Z,6.67
2018-07-26T21:38:25.332Z,7.00
2018-07-26T21:40:54.286Z,7.17
2018-07-26T21:43:22.984Z,7.87
2018-07-26T21:45:51.696Z,7.53
2018-07-26T21:48:20.508Z,7.37
2018-07-26T21:50:49.454Z,7.23
2018-07-26T21:53:18.233Z,7.03
2018-07-26T21:55:47.092Z,7.27
2018-07-26T21:58:16.026Z,7.27
2018-07-26T22:00:49.761Z,7.50
2018-07-26T22:03:18.346Z,8.00
2018-07-26T22:05:47.102Z,7.47
2018-07-26T22:08:15.795Z,7.50
2018-07-26T22:10:44.410Z,7.80
2018-07-26T22:13:13.780Z,7.73
2018-07-26T22:15:42.671Z,8.13
2018-07-26T22:18:11.370Z,7.43
2018-07-26T22:20:39.905Z,7.30
2018-07-26T22:23:08.961Z,7.00
2018-07-26T22:25:38.118Z,7.63
2018-07-26T22:28:06.782Z,7.70
2018-07-26T22:30:35.802Z,7.23
2018-07-26T22:33:04.812Z,7.33
2018-07-26T22:35:33.744Z,7.63
2018-07-26T22:38:02.432Z,7.70
2018-07-26T22:40:30.774Z,7.47
2018-07-26T22:42:59.448Z,7.17
2018-07-26T22:45:28.118Z,7.47
2018-07-26T22:47:56.790Z,7.77
2018-07-26T22:50:25.307Z,7.03
2018-07-26T22:52:53.891Z,6.87
2018-07-26T22:55:22.613Z,7.23
2018-07-26T22:57:51.610Z,7.53
2018-07-26T23:00:20.876Z,7.37
2018-07-26T23:02:49.426Z,7.60
2018-07-26T23:05:18.266Z,7.17
2018-07-26T23:07:46.722Z,7.43
2018-07-26T23:10:15.326Z,7.73
2018-07-26T23:12:44.045Z,7.43
2018-07-26T23:15:12.745Z,7.30
2018-07-26T23:17:42.090Z,7.63
2018-07-26T23:20:11.704Z,7.73
2018-07-26T23:22:40.460Z,7.90
2018-07-26T23:25:09.460Z,7.53
2018-07-26T23:27:37.964Z,7.80
2018-07-26T23:30:07.432Z,7.70
2018-07-26T23:32:35.993Z,7.40
2018-07-26T23:35:04.947Z,7.30
2018-07-26T23:37:33.477Z,7.50
2018-07-26T23:40:02.324Z,7.07
2018-07-26T23:42:30.768Z,7.67
2018-07-26T23:44:59.695Z,7.13
2018-07-26T23:47:28.194Z,7.37
2018-07-26T23:49:56.859Z,7.90
2018-07-26T23:52:25.459Z,7.73
2018-07-26T23:54:53.947Z,7.67
2018-07-26T23:57:23.133Z,8.13
2018-07-26T23:59:52.754Z,7.30
